To NAV CANADA Home Page Login to a new session Search on AWWS site Feedback and Comments Disclaimer Vers la page française équivalente Tips FAQ What's new on the site To the Forecasts and Observations / NOTAM section To "File a Flight Plan" website Publications and other links Update of the User's profile FIC Telephone Numbers My Weather Data Folder Route Weather Data Regional Weather Data Local Weather Data To the Forecasts and Observations / NOTAM section
Request Generated 08/25/2016 at 09:39:12 UTC . Weather information available at that time is displayed.

METAR/TAF

COLD LAKE/GROUP CAPTAIN R.W. MCNAIR/AB    

METAR CYOD 250900Z 24003KT 15SM OVC085 14/13 A3013 RMK AC8 SLP208=
SPECI CYOD 250808Z 22004KT 15SM BKN085 14/13 A3013 RMK AC7 SLP211=
METAR CYOD 250800Z 23003KT 12SM -SHRA BKN080 14/13 A3014 RMK AC7 SLP212=
METAR CYOD 250700Z 27007KT 12SM -SHRA BKN070 15/13 A3015 RMK AC7 SLP215=

TAF CYOD 250530Z 2506/2606 27006KT P6SM SCT030 BKN080 TEMPO 2506/2516
5SM -SHRA BR BKN030 BKN080
FM251600 30012KT P6SM SCT015 BKN040 TEMPO 2516/2606 5SM -SHRA BR
PROB30 2519/2524 VRB20G30KT 3SM TSRA BR BKN015 OVC040CB
RMK NXT FCST BY 251200Z=
Your time UTC time
Weather data provided by Environment Canada and NAV CANADA